SWA3505 KMSY-KMCO
Flight info
| Callsign | SWA3505 |
|---|---|
| Flight time | 1h 14m |
| Altitude | 37000 |
| Route | REDFN Y280 CHRGE PRICY5 |
| Aircraft | B738/M-SDE2E3FGHIRWXY/LB1 |
Departure
| Time | 2026-05-04 23:52 |
|---|---|
| Airport | Louis Armstrong New Orleans International Airport (KMSY) |
Arrival
| Time | 2026-05-05 01:06 |
|---|---|
| Airport | Orlando International Airport (KMCO) |
| Time | Latitude | Longitude | Altitude | Speed | Heading |
|---|---|---|---|---|---|
| 2026-05-04 23:22 | 29.98806 | -90.25619 | 17 ft | 0 kts | 199° |
| 2026-05-04 23:41 | 29.98807 | -90.25619 | 17 ft | 2 kts | 199° |
| 2026-05-04 23:41 | 29.98832 | -90.25610 | 17 ft | 4 kts | 198° |
| 2026-05-04 23:42 | 29.98858 | -90.25600 | 19 ft | 4 kts | 199° |
| 2026-05-04 23:42 | 29.98866 | -90.25597 | 19 ft | 2 kts | 199° |
| 2026-05-04 23:45 | 29.98865 | -90.25598 | 19 ft | 1 kts | 205° |
| 2026-05-04 23:45 | 29.98862 | -90.25600 | 19 ft | 1 kts | 219° |
| 2026-05-04 23:46 | 29.98861 | -90.25603 | 18 ft | 1 kts | 234° |
| 2026-05-04 23:46 | 29.98860 | -90.25609 | 18 ft | 1 kts | 256° |
| 2026-05-04 23:46 | 29.98860 | -90.25616 | 20 ft | 1 kts | 273° |
| 2026-05-04 23:46 | 29.98862 | -90.25623 | 20 ft | 1 kts | 290° |
| 2026-05-04 23:47 | 29.98864 | -90.25625 | 20 ft | 0 kts | 307° |
| 2026-05-04 23:47 | 29.98867 | -90.25628 | 20 ft | 1 kts | 309° |
| 2026-05-04 23:47 | 29.98881 | -90.25647 | 19 ft | 6 kts | 311° |
| 2026-05-04 23:47 | 29.98933 | -90.25701 | 19 ft | 13 kts | 316° |
| 2026-05-04 23:48 | 29.98969 | -90.25808 | 17 ft | 17 kts | 284° |
| 2026-05-04 23:48 | 29.99004 | -90.25953 | 16 ft | 20 kts | 286° |
| 2026-05-04 23:48 | 29.99045 | -90.26119 | 14 ft | 23 kts | 285° |
| 2026-05-04 23:48 | 29.99088 | -90.26305 | 13 ft | 26 kts | 286° |
| 2026-05-04 23:49 | 29.99136 | -90.26507 | 15 ft | 27 kts | 284° |
| 2026-05-04 23:49 | 29.99185 | -90.26719 | 12 ft | 28 kts | 285° |
| 2026-05-04 23:49 | 29.99237 | -90.26935 | 15 ft | 29 kts | 285° |
| 2026-05-04 23:49 | 29.99294 | -90.27167 | 13 ft | 32 kts | 285° |
| 2026-05-04 23:50 | 29.99354 | -90.27424 | 7 ft | 33 kts | 292° |
| 2026-05-04 23:50 | 29.99416 | -90.27667 | 8 ft | 31 kts | 285° |
| 2026-05-04 23:50 | 29.99473 | -90.27910 | 8 ft | 31 kts | 285° |
| 2026-05-04 23:50 | 29.99528 | -90.28133 | 12 ft | 19 kts | 292° |
| 2026-05-04 23:51 | 29.99603 | -90.28179 | 11 ft | 11 kts | 5° |
| 2026-05-04 23:51 | 29.99635 | -90.28159 | 11 ft | 4 kts | 51° |
| 2026-05-04 23:51 | 29.99649 | -90.28095 | 10 ft | 16 kts | 96° |
| 2026-05-04 23:51 | 29.99573 | -90.27786 | 7 ft | 81 kts | 106° |
| 2026-05-04 23:52 | 29.99345 | -90.26829 | 34 ft | 160 kts | 105° |
| 2026-05-04 23:52 | 29.99055 | -90.25508 | 786 ft | 172 kts | 108° |
| 2026-05-04 23:52 | 29.98809 | -90.24210 | 2030 ft | 161 kts | 103° |
| 2026-05-04 23:52 | 29.98689 | -90.22933 | 2731 ft | 163 kts | 100° |
| 2026-05-04 23:53 | 29.98465 | -90.21594 | 3099 ft | 179 kts | 109° |
| 2026-05-04 23:53 | 29.98168 | -90.20208 | 3570 ft | 187 kts | 105° |
| 2026-05-04 23:53 | 29.97518 | -90.18867 | 3563 ft | 208 kts | 137° |
| 2026-05-04 23:53 | 29.96442 | -90.17565 | 3766 ft | 240 kts | 131° |
| 2026-05-04 23:54 | 29.95497 | -90.15876 | 4306 ft | 261 kts | 117° |
| 2026-05-04 23:54 | 29.94784 | -90.13892 | 5054 ft | 273 kts | 112° |
| 2026-05-04 23:54 | 29.94123 | -90.11841 | 5909 ft | 280 kts | 111° |
| 2026-05-04 23:54 | 29.93440 | -90.09708 | 6705 ft | 289 kts | 111° |
| 2026-05-04 23:55 | 29.92738 | -90.07507 | 7537 ft | 295 kts | 110° |
| 2026-05-04 23:55 | 29.92022 | -90.05253 | 8328 ft | 303 kts | 110° |
| 2026-05-04 23:55 | 29.90549 | -90.00583 | 10003 ft | 316 kts | 110° |
| 2026-05-04 23:56 | 29.89724 | -89.98201 | 10638 ft | 326 kts | 117° |
| 2026-05-04 23:56 | 29.88559 | -89.95890 | 11132 ft | 341 kts | 123° |
| 2026-05-04 23:56 | 29.87342 | -89.93460 | 11522 ft | 361 kts | 118° |
| 2026-05-04 23:56 | 29.86293 | -89.90746 | 11856 ft | 380 kts | 111° |
| 2026-05-04 23:57 | 29.85324 | -89.87829 | 12197 ft | 398 kts | 111° |
| 2026-05-04 23:57 | 29.84238 | -89.84843 | 12729 ft | 409 kts | 114° |
| 2026-05-04 23:57 | 29.83040 | -89.81837 | 13338 ft | 417 kts | 115° |
| 2026-05-04 23:57 | 29.81846 | -89.78771 | 13950 ft | 423 kts | 113° |
| 2026-05-04 23:58 | 29.80682 | -89.75632 | 14523 ft | 428 kts | 113° |
| 2026-05-04 23:58 | 29.79498 | -89.72454 | 15107 ft | 433 kts | 113° |
| 2026-05-04 23:58 | 29.78276 | -89.69260 | 15690 ft | 438 kts | 114° |
| 2026-05-04 23:58 | 29.77036 | -89.66034 | 16274 ft | 443 kts | 114° |
| 2026-05-04 23:59 | 29.75796 | -89.62768 | 16857 ft | 447 kts | 113° |
| 2026-05-04 23:59 | 29.74564 | -89.59512 | 17425 ft | 452 kts | 113° |
| 2026-05-04 23:59 | 29.73297 | -89.56184 | 17985 ft | 456 kts | 114° |
| 2026-05-04 23:59 | 29.72008 | -89.52817 | 18509 ft | 461 kts | 114° |
| 2026-05-05 00:00 | 29.70714 | -89.49433 | 18972 ft | 465 kts | 114° |
| 2026-05-05 00:00 | 29.70273 | -89.48277 | 19140 ft | 466 kts | 114° |
| 2026-05-05 00:00 | 29.68091 | -89.42562 | 19909 ft | 474 kts | 114° |
| 2026-05-05 00:00 | 29.66757 | -89.39081 | 20359 ft | 478 kts | 114° |
| 2026-05-05 00:01 | 29.65407 | -89.35560 | 20829 ft | 482 kts | 114° |
| 2026-05-05 00:01 | 29.64049 | -89.32018 | 21280 ft | 487 kts | 114° |
| 2026-05-05 00:01 | 29.62677 | -89.28443 | 21723 ft | 491 kts | 114° |
| 2026-05-05 00:01 | 29.61292 | -89.24839 | 22204 ft | 495 kts | 114° |
| 2026-05-05 00:02 | 29.59894 | -89.21209 | 22640 ft | 499 kts | 114° |
| 2026-05-05 00:02 | 29.58482 | -89.17542 | 23082 ft | 503 kts | 114° |
| 2026-05-05 00:02 | 29.57077 | -89.13896 | 23517 ft | 507 kts | 114° |
| 2026-05-05 00:02 | 29.55641 | -89.10174 | 23877 ft | 512 kts | 114° |
| 2026-05-05 00:03 | 29.54193 | -89.06425 | 24235 ft | 516 kts | 114° |
| 2026-05-05 00:03 | 29.52730 | -89.02641 | 24548 ft | 520 kts | 113° |
| 2026-05-05 00:03 | 29.51254 | -88.98828 | 24882 ft | 524 kts | 113° |
| 2026-05-05 00:03 | 29.49767 | -88.94990 | 25219 ft | 529 kts | 113° |
| 2026-05-05 00:04 | 29.48242 | -88.91136 | 25629 ft | 531 kts | 117° |
| 2026-05-05 00:04 | 29.46059 | -88.87750 | 26107 ft | 528 kts | 138° |
| 2026-05-05 00:04 | 29.43087 | -88.85340 | 26612 ft | 519 kts | 159° |
| 2026-05-05 00:04 | 29.39695 | -88.84155 | 27106 ft | 503 kts | 179° |
| 2026-05-05 00:05 | 29.37406 | -88.83897 | 27424 ft | 497 kts | 185° |
| 2026-05-05 00:05 | 29.32802 | -88.83829 | 28057 ft | 495 kts | 188° |
| 2026-05-05 00:05 | 29.29352 | -88.83791 | 28521 ft | 499 kts | 187° |
| 2026-05-05 00:05 | 29.27040 | -88.83661 | 28835 ft | 503 kts | 184° |
| 2026-05-05 00:06 | 29.23537 | -88.83163 | 29253 ft | 513 kts | 176° |
| 2026-05-05 00:06 | 29.20059 | -88.82071 | 29755 ft | 522 kts | 168° |
| 2026-05-05 00:06 | 29.16643 | -88.80612 | 30222 ft | 526 kts | 164° |
| 2026-05-05 00:06 | 29.13239 | -88.79048 | 30647 ft | 526 kts | 165° |
| 2026-05-05 00:07 | 29.09793 | -88.77684 | 31079 ft | 522 kts | 170° |
| 2026-05-05 00:07 | 29.06300 | -88.76570 | 31520 ft | 520 kts | 173° |
| 2026-05-05 00:07 | 29.02811 | -88.75467 | 31960 ft | 522 kts | 170° |
| 2026-05-05 00:07 | 28.99348 | -88.74179 | 32419 ft | 524 kts | 168° |
| 2026-05-05 00:08 | 28.95887 | -88.72837 | 32851 ft | 523 kts | 169° |
| 2026-05-05 00:08 | 28.92420 | -88.71608 | 33265 ft | 521 kts | 171° |
| 2026-05-05 00:08 | 28.88999 | -88.70203 | 33737 ft | 531 kts | 156° |
| 2026-05-05 00:08 | 28.86041 | -88.67737 | 34192 ft | 540 kts | 135° |
| 2026-05-05 00:09 | 28.83838 | -88.64292 | 34609 ft | 538 kts | 113° |
| 2026-05-05 00:09 | 28.82678 | -88.60306 | 35124 ft | 524 kts | 95° |
| 2026-05-05 00:09 | 28.82246 | -88.56223 | 35565 ft | 516 kts | 87° |
| 2026-05-05 00:09 | 28.82056 | -88.52091 | 35877 ft | 515 kts | 86° |
| 2026-05-05 00:10 | 28.81836 | -88.48052 | 36183 ft | 518 kts | 89° |
| 2026-05-05 00:10 | 28.81354 | -88.43961 | 36520 ft | 525 kts | 97° |
| 2026-05-05 00:10 | 28.80361 | -88.39929 | 36826 ft | 531 kts | 106° |
| 2026-05-05 00:10 | 28.79051 | -88.35994 | 36980 ft | 530 kts | 109° |
| 2026-05-05 00:11 | 28.77670 | -88.32122 | 36969 ft | 527 kts | 108° |
| 2026-05-05 00:11 | 28.75491 | -88.24223 | 36976 ft | 520 kts | 101° |
| 2026-05-05 00:12 | 28.73356 | -88.16326 | 36977 ft | 522 kts | 106° |
| 2026-05-05 00:12 | 28.71074 | -88.08481 | 36993 ft | 521 kts | 103° |
| 2026-05-05 00:13 | 28.68914 | -88.00583 | 36993 ft | 522 kts | 104° |
| 2026-05-05 00:13 | 28.66650 | -87.92737 | 36993 ft | 521 kts | 104° |
| 2026-05-05 00:14 | 28.64468 | -87.84911 | 36950 ft | 521 kts | 104° |
| 2026-05-05 00:14 | 28.62226 | -87.77086 | 36979 ft | 519 kts | 104° |
| 2026-05-05 00:15 | 28.60015 | -87.69269 | 36991 ft | 519 kts | 104° |
| 2026-05-05 00:15 | 28.57778 | -87.61450 | 36991 ft | 519 kts | 104° |
| 2026-05-05 00:16 | 28.55552 | -87.53651 | 36988 ft | 519 kts | 104° |
| 2026-05-05 00:16 | 28.53313 | -87.45842 | 36986 ft | 519 kts | 104° |
| 2026-05-05 00:17 | 28.51073 | -87.38042 | 36989 ft | 519 kts | 104° |
| 2026-05-05 00:17 | 28.48827 | -87.30240 | 36983 ft | 519 kts | 104° |
| 2026-05-05 00:18 | 28.46574 | -87.22437 | 36987 ft | 520 kts | 104° |
| 2026-05-05 00:18 | 28.44333 | -87.14688 | 36987 ft | 520 kts | 104° |
| 2026-05-05 00:19 | 28.42069 | -87.06885 | 36981 ft | 519 kts | 104° |
| 2026-05-05 00:19 | 28.39804 | -86.99093 | 36984 ft | 519 kts | 104° |
| 2026-05-05 00:20 | 28.37534 | -86.91303 | 36978 ft | 519 kts | 104° |
| 2026-05-05 00:20 | 28.35262 | -86.83523 | 36978 ft | 519 kts | 104° |
| 2026-05-05 00:21 | 28.33000 | -86.75797 | 36941 ft | 519 kts | 104° |
| 2026-05-05 00:21 | 28.30980 | -86.67981 | 36991 ft | 513 kts | 98° |
| 2026-05-05 00:22 | 28.28828 | -86.60196 | 36987 ft | 518 kts | 107° |
| 2026-05-05 00:22 | 28.26664 | -86.52424 | 36987 ft | 515 kts | 100° |
| 2026-05-05 00:23 | 28.24727 | -86.44574 | 36983 ft | 518 kts | 104° |
| 2026-05-05 00:23 | 28.22588 | -86.36783 | 36983 ft | 517 kts | 102° |
| 2026-05-05 00:24 | 28.20590 | -86.28947 | 36984 ft | 517 kts | 103° |
| 2026-05-05 00:24 | 28.18504 | -86.21204 | 36983 ft | 517 kts | 103° |
| 2026-05-05 00:25 | 28.16465 | -86.13405 | 36975 ft | 515 kts | 103° |
| 2026-05-05 00:25 | 28.14389 | -86.05631 | 36972 ft | 515 kts | 103° |
| 2026-05-05 00:26 | 28.12331 | -85.97866 | 36966 ft | 514 kts | 103° |
| 2026-05-05 00:26 | 28.10261 | -85.90113 | 36965 ft | 514 kts | 103° |
| 2026-05-05 00:27 | 28.08192 | -85.82368 | 36971 ft | 514 kts | 103° |
| 2026-05-05 00:27 | 28.06114 | -85.74614 | 36972 ft | 514 kts | 103° |
| 2026-05-05 00:28 | 28.04034 | -85.66873 | 36973 ft | 514 kts | 103° |
| 2026-05-05 00:28 | 28.01948 | -85.59123 | 36973 ft | 514 kts | 103° |
| 2026-05-05 00:29 | 27.99859 | -85.51386 | 36970 ft | 514 kts | 103° |
| 2026-05-05 00:29 | 27.97767 | -85.43656 | 36969 ft | 513 kts | 103° |
| 2026-05-05 00:30 | 27.95679 | -85.35960 | 36978 ft | 511 kts | 103° |
| 2026-05-05 00:30 | 27.93591 | -85.28281 | 36979 ft | 510 kts | 103° |
| 2026-05-05 00:31 | 27.91501 | -85.20612 | 36979 ft | 510 kts | 103° |
| 2026-05-05 00:31 | 27.89402 | -85.12933 | 36976 ft | 510 kts | 103° |
| 2026-05-05 00:32 | 27.87319 | -85.05325 | 36976 ft | 510 kts | 103° |
| 2026-05-05 00:32 | 27.85212 | -84.97652 | 36983 ft | 511 kts | 104° |
| 2026-05-05 00:33 | 27.83101 | -84.89983 | 36979 ft | 511 kts | 104° |
| 2026-05-05 00:33 | 27.81269 | -84.82279 | 37007 ft | 501 kts | 86° |
| 2026-05-05 00:34 | 27.81562 | -84.74516 | 36985 ft | 487 kts | 76° |
| 2026-05-05 00:34 | 27.82105 | -84.66850 | 36988 ft | 496 kts | 81° |
| 2026-05-05 00:35 | 27.82347 | -84.59089 | 36983 ft | 493 kts | 79° |
| 2026-05-05 00:35 | 27.82794 | -84.51363 | 36980 ft | 494 kts | 80° |
| 2026-05-05 00:36 | 27.83104 | -84.43610 | 36981 ft | 493 kts | 80° |
| 2026-05-05 00:36 | 27.83485 | -84.35919 | 36988 ft | 493 kts | 80° |
| 2026-05-05 00:37 | 27.83822 | -84.28168 | 36996 ft | 494 kts | 81° |
| 2026-05-05 00:37 | 27.84175 | -84.20425 | 36977 ft | 493 kts | 80° |
| 2026-05-05 00:38 | 27.84515 | -84.12689 | 36976 ft | 493 kts | 81° |
| 2026-05-05 00:38 | 27.84853 | -84.04960 | 36973 ft | 493 kts | 81° |
| 2026-05-05 00:39 | 27.85187 | -83.97220 | 36973 ft | 493 kts | 81° |
| 2026-05-05 00:39 | 27.85516 | -83.89476 | 36976 ft | 493 kts | 81° |
| 2026-05-05 00:39 | 27.85679 | -83.85609 | 36655 ft | 492 kts | 81° |
| 2026-05-05 00:40 | 27.85837 | -83.81767 | 36465 ft | 486 kts | 81° |
| 2026-05-05 00:40 | 27.85991 | -83.77988 | 36358 ft | 477 kts | 81° |
| 2026-05-05 00:40 | 27.86145 | -83.74274 | 36213 ft | 470 kts | 81° |
| 2026-05-05 00:40 | 27.86298 | -83.70601 | 36044 ft | 465 kts | 80° |
| 2026-05-05 00:41 | 27.86448 | -83.66966 | 35836 ft | 461 kts | 80° |
| 2026-05-05 00:41 | 27.86593 | -83.63349 | 35606 ft | 460 kts | 80° |
| 2026-05-05 00:41 | 27.86741 | -83.59725 | 35368 ft | 464 kts | 80° |
| 2026-05-05 00:41 | 27.86890 | -83.56056 | 35058 ft | 470 kts | 80° |
| 2026-05-05 00:42 | 27.87037 | -83.52388 | 34686 ft | 478 kts | 81° |
| 2026-05-05 00:42 | 27.87185 | -83.48601 | 34222 ft | 487 kts | 81° |
| 2026-05-05 00:42 | 27.87336 | -83.44742 | 33707 ft | 496 kts | 81° |
| 2026-05-05 00:42 | 27.87488 | -83.40822 | 33246 ft | 502 kts | 81° |
| 2026-05-05 00:43 | 27.87640 | -83.36851 | 32821 ft | 507 kts | 81° |
| 2026-05-05 00:43 | 27.87792 | -83.32864 | 32450 ft | 510 kts | 82° |
| 2026-05-05 00:43 | 27.87944 | -83.28841 | 32086 ft | 513 kts | 82° |
| 2026-05-05 00:43 | 27.88037 | -83.24797 | 31759 ft | 517 kts | 85° |
| 2026-05-05 00:44 | 27.88038 | -83.20727 | 31426 ft | 519 kts | 84° |
| 2026-05-05 00:44 | 27.88054 | -83.16646 | 31111 ft | 520 kts | 84° |
| 2026-05-05 00:44 | 27.88068 | -83.12548 | 30818 ft | 521 kts | 85° |
| 2026-05-05 00:44 | 27.88070 | -83.08489 | 30372 ft | 523 kts | 85° |
| 2026-05-05 00:45 | 27.88070 | -83.04378 | 29649 ft | 523 kts | 86° |
| 2026-05-05 00:45 | 27.88074 | -83.00262 | 28955 ft | 523 kts | 86° |
| 2026-05-05 00:45 | 27.88079 | -82.96159 | 28273 ft | 520 kts | 86° |
| 2026-05-05 00:45 | 27.88080 | -82.92102 | 27595 ft | 514 kts | 86° |
| 2026-05-05 00:46 | 27.88077 | -82.88085 | 26932 ft | 509 kts | 87° |
| 2026-05-05 00:46 | 27.88076 | -82.84097 | 26254 ft | 503 kts | 87° |
| 2026-05-05 00:46 | 27.88075 | -82.80164 | 25600 ft | 498 kts | 88° |
| 2026-05-05 00:46 | 27.88072 | -82.76268 | 24929 ft | 492 kts | 88° |
| 2026-05-05 00:47 | 27.88067 | -82.72427 | 24284 ft | 486 kts | 88° |
| 2026-05-05 00:47 | 27.88061 | -82.68623 | 23646 ft | 480 kts | 88° |
| 2026-05-05 00:47 | 27.88049 | -82.64875 | 22971 ft | 474 kts | 89° |
| 2026-05-05 00:47 | 27.87990 | -82.61168 | 22342 ft | 469 kts | 90° |
| 2026-05-05 00:48 | 27.87911 | -82.57503 | 21718 ft | 463 kts | 90° |
| 2026-05-05 00:48 | 27.87856 | -82.53884 | 21110 ft | 458 kts | 90° |
| 2026-05-05 00:48 | 27.87816 | -82.50302 | 20509 ft | 453 kts | 90° |
| 2026-05-05 00:48 | 27.87766 | -82.46758 | 19934 ft | 447 kts | 90° |
| 2026-05-05 00:49 | 27.87726 | -82.44450 | 19544 ft | 443 kts | 90° |
| 2026-05-05 00:49 | 27.88084 | -82.39959 | 19044 ft | 424 kts | 71° |
| 2026-05-05 00:49 | 27.89129 | -82.36908 | 18738 ft | 410 kts | 63° |
| 2026-05-05 00:49 | 27.90379 | -82.34045 | 18241 ft | 404 kts | 60° |
| 2026-05-05 00:50 | 27.91673 | -82.31247 | 17668 ft | 399 kts | 61° |
| 2026-05-05 00:50 | 27.92451 | -82.29381 | 17448 ft | 395 kts | 64° |
| 2026-05-05 00:50 | 27.93530 | -82.26526 | 17087 ft | 393 kts | 65° |
| 2026-05-05 00:50 | 27.94615 | -82.23697 | 16741 ft | 389 kts | 64° |
| 2026-05-05 00:51 | 27.95747 | -82.20927 | 16381 ft | 386 kts | 63° |
| 2026-05-05 00:51 | 27.96869 | -82.18194 | 16028 ft | 382 kts | 64° |
| 2026-05-05 00:51 | 27.97959 | -82.15455 | 15676 ft | 379 kts | 64° |
| 2026-05-05 00:51 | 27.99029 | -82.12741 | 15327 ft | 376 kts | 64° |
| 2026-05-05 00:52 | 28.00098 | -82.10065 | 14980 ft | 372 kts | 64° |
| 2026-05-05 00:52 | 28.01166 | -82.07404 | 14621 ft | 369 kts | 64° |
| 2026-05-05 00:52 | 28.02218 | -82.04769 | 14271 ft | 363 kts | 65° |
| 2026-05-05 00:52 | 28.03241 | -82.02195 | 13948 ft | 355 kts | 65° |
| 2026-05-05 00:53 | 28.04245 | -81.99672 | 13598 ft | 347 kts | 65° |
| 2026-05-05 00:53 | 28.05226 | -81.97210 | 13272 ft | 340 kts | 65° |
| 2026-05-05 00:53 | 28.06192 | -81.94797 | 12958 ft | 333 kts | 64° |
| 2026-05-05 00:53 | 28.07144 | -81.92473 | 12657 ft | 326 kts | 64° |
| 2026-05-05 00:54 | 28.08092 | -81.90161 | 12375 ft | 322 kts | 64° |
| 2026-05-05 00:54 | 28.09057 | -81.87877 | 12086 ft | 319 kts | 60° |
| 2026-05-05 00:54 | 28.10107 | -81.85674 | 11791 ft | 317 kts | 62° |
| 2026-05-05 00:54 | 28.11103 | -81.83443 | 11500 ft | 316 kts | 62° |
| 2026-05-05 00:55 | 28.12110 | -81.81232 | 11209 ft | 315 kts | 63° |
| 2026-05-05 00:55 | 28.12715 | -81.78881 | 10922 ft | 314 kts | 89° |
| 2026-05-05 00:55 | 28.12566 | -81.76417 | 10623 ft | 311 kts | 99° |
| 2026-05-05 00:55 | 28.12183 | -81.74013 | 10350 ft | 309 kts | 102° |
| 2026-05-05 00:56 | 28.11820 | -81.71612 | 10049 ft | 309 kts | 99° |
| 2026-05-05 00:56 | 28.11544 | -81.69196 | 9755 ft | 307 kts | 98° |
| 2026-05-05 00:56 | 28.11278 | -81.66800 | 9460 ft | 306 kts | 99° |
| 2026-05-05 00:56 | 28.10984 | -81.64418 | 9172 ft | 305 kts | 99° |
| 2026-05-05 00:57 | 28.10694 | -81.62135 | 8947 ft | 303 kts | 99° |
| 2026-05-05 00:57 | 28.10397 | -81.59743 | 8733 ft | 302 kts | 99° |
| 2026-05-05 00:57 | 28.10110 | -81.57398 | 8507 ft | 298 kts | 99° |
| 2026-05-05 00:57 | 28.09836 | -81.55160 | 8254 ft | 276 kts | 99° |
| 2026-05-05 00:58 | 28.09584 | -81.53124 | 8102 ft | 248 kts | 99° |
| 2026-05-05 00:58 | 28.09360 | -81.51310 | 7913 ft | 219 kts | 100° |
| 2026-05-05 00:58 | 28.09155 | -81.49659 | 7735 ft | 199 kts | 100° |
| 2026-05-05 00:58 | 28.08968 | -81.48157 | 7586 ft | 192 kts | 100° |
| 2026-05-05 00:59 | 28.08762 | -81.46532 | 7470 ft | 230 kts | 100° |
| 2026-05-05 00:59 | 28.08529 | -81.44673 | 7312 ft | 245 kts | 99° |
| 2026-05-05 00:59 | 28.08611 | -81.42755 | 7110 ft | 250 kts | 70° |
| 2026-05-05 00:59 | 28.09629 | -81.41206 | 6781 ft | 245 kts | 37° |
| 2026-05-05 01:00 | 28.11042 | -81.40130 | 6449 ft | 245 kts | 30° |
| 2026-05-05 01:00 | 28.12491 | -81.39118 | 6109 ft | 244 kts | 31° |
| 2026-05-05 01:00 | 28.13888 | -81.38036 | 5792 ft | 242 kts | 34° |
| 2026-05-05 01:00 | 28.15258 | -81.36928 | 5470 ft | 241 kts | 34° |
| 2026-05-05 01:01 | 28.16614 | -81.35848 | 5111 ft | 236 kts | 34° |
| 2026-05-05 01:01 | 28.17958 | -81.34792 | 4785 ft | 235 kts | 34° |
| 2026-05-05 01:01 | 28.19286 | -81.33747 | 4462 ft | 230 kts | 35° |
| 2026-05-05 01:01 | 28.20610 | -81.32754 | 4153 ft | 227 kts | 29° |
| 2026-05-05 01:02 | 28.22101 | -81.32427 | 3909 ft | 227 kts | 3° |
| 2026-05-05 01:02 | 28.23658 | -81.32445 | 3625 ft | 215 kts | 1° |
| 2026-05-05 01:02 | 28.25083 | -81.32488 | 3346 ft | 196 kts | 2° |
| 2026-05-05 01:02 | 28.26435 | -81.32507 | 3106 ft | 196 kts | 4° |
| 2026-05-05 01:03 | 28.27781 | -81.32518 | 2843 ft | 190 kts | 4° |
| 2026-05-05 01:03 | 28.29106 | -81.32531 | 2586 ft | 191 kts | 4° |
| 2026-05-05 01:03 | 28.30421 | -81.32544 | 2334 ft | 183 kts | 4° |
| 2026-05-05 01:03 | 28.31602 | -81.32563 | 2091 ft | 158 kts | 6° |
| 2026-05-05 01:04 | 28.32688 | -81.32573 | 1887 ft | 154 kts | 7° |
| 2026-05-05 01:04 | 28.34794 | -81.32589 | 1488 ft | 150 kts | 5° |
| 2026-05-05 01:04 | 28.35834 | -81.32600 | 1297 ft | 150 kts | 6° |
| 2026-05-05 01:05 | 28.36877 | -81.32611 | 1099 ft | 148 kts | 5° |
| 2026-05-05 01:05 | 28.37902 | -81.32622 | 905 ft | 145 kts | 5° |
| 2026-05-05 01:05 | 28.38918 | -81.32637 | 685 ft | 146 kts | 4° |
| 2026-05-05 01:05 | 28.39911 | -81.32643 | 438 ft | 145 kts | 6° |
| 2026-05-05 01:06 | 28.40921 | -81.32654 | 244 ft | 143 kts | 4° |
| 2026-05-05 01:06 | 28.41920 | -81.32669 | 119 ft | 143 kts | 4° |
| 2026-05-05 01:06 | 28.42711 | -81.32672 | 104 ft | 79 kts | 359° |
| 2026-05-05 01:06 | 28.43093 | -81.32639 | 107 ft | 42 kts | 14° |
| 2026-05-05 01:07 | 28.43282 | -81.32665 | 111 ft | 25 kts | 354° |
| 2026-05-05 01:07 | 28.43464 | -81.32676 | 108 ft | 28 kts | 358° |
| 2026-05-05 01:07 | 28.43653 | -81.32655 | 106 ft | 26 kts | 24° |
| 2026-05-05 01:07 | 28.43756 | -81.32529 | 105 ft | 21 kts | 59° |
| 2026-05-05 01:08 | 28.43828 | -81.32387 | 106 ft | 20 kts | 59° |
| 2026-05-05 01:08 | 28.43897 | -81.32258 | 110 ft | 19 kts | 58° |
| 2026-05-05 01:08 | 28.43968 | -81.32127 | 110 ft | 19 kts | 60° |
| 2026-05-05 01:08 | 28.43984 | -81.32011 | 109 ft | 12 kts | 102° |
| 2026-05-05 01:09 | 28.43951 | -81.31930 | 110 ft | 12 kts | 120° |
| 2026-05-05 01:09 | 28.43907 | -81.31862 | 110 ft | 9 kts | 147° |
| 2026-05-05 01:09 | 28.43857 | -81.31811 | 107 ft | 8 kts | 115° |
| 2026-05-05 01:09 | 28.43844 | -81.31741 | 107 ft | 10 kts | 96° |
| 2026-05-05 01:10 | 28.43820 | -81.31687 | 106 ft | 7 kts | 131° |
| 2026-05-05 01:10 | 28.43771 | -81.31642 | 105 ft | 10 kts | 147° |
| 2026-05-05 01:10 | 28.43717 | -81.31592 | 103 ft | 9 kts | 124° |
| 2026-05-05 01:10 | 28.43677 | -81.31535 | 102 ft | 6 kts | 146° |
| 2026-05-05 01:11 | 28.43647 | -81.31516 | 102 ft | 1 kts | 168° |
| 2026-05-05 01:11 | 28.43629 | -81.31518 | 103 ft | 0 kts | 182° |